createdAt,value
2022-11-15T00:01:11.199Z,100359.19
2022-11-15T00:03:40.574Z,100351.06
2022-11-15T00:06:08.666Z,100358.34
2022-11-15T00:08:36.682Z,100361.88
2022-11-15T00:11:04.939Z,100359.19
2022-11-15T00:13:33.193Z,100358.34
2022-11-15T00:16:01.878Z,100350.47
2022-11-15T00:18:30.041Z,100354.81
2022-11-15T00:21:04.510Z,100347.75
2022-11-15T00:23:32.783Z,100353.97
2022-11-15T00:26:01.016Z,100357.50
2022-11-15T00:28:28.970Z,100360.19
2022-11-15T00:31:01.489Z,100352.09
2022-11-15T00:33:29.753Z,100351.28
2022-11-15T00:36:03.579Z,100351.28
2022-11-15T00:38:33.675Z,100348.59
2022-11-15T00:41:06.242Z,100342.34
2022-11-15T00:43:36.953Z,100350.47
2022-11-15T00:46:07.222Z,100350.47
2022-11-15T00:48:35.115Z,100356.69
2022-11-15T00:51:05.563Z,100355.84
2022-11-15T00:53:33.818Z,100353.16
2022-11-15T00:56:02.059Z,100356.69
2022-11-15T00:58:30.019Z,100359.38
2022-11-15T01:00:58.031Z,100361.25
2022-11-15T01:03:25.940Z,100348.81
2022-11-15T01:05:53.933Z,100359.63
2022-11-15T01:08:23.267Z,100368.53
2022-11-15T01:10:51.231Z,100354.22
2022-11-15T01:13:19.200Z,100354.22
2022-11-15T01:15:47.129Z,100354.22
2022-11-15T01:18:17.484Z,100360.44
2022-11-15T01:20:45.410Z,100355.84
2022-11-15T01:23:15.834Z,100354.22
2022-11-15T01:25:50.095Z,100345.28
2022-11-15T01:28:22.727Z,100330.94
2022-11-15T01:30:51.069Z,100335.31
2022-11-15T01:33:20.452Z,100348.00
2022-11-15T01:35:49.501Z,100348.81
2022-11-15T01:38:18.804Z,100338.22
2022-11-15T01:40:49.302Z,100341.75
2022-11-15T01:43:25.495Z,100332.63
2022-11-15T01:45:55.010Z,100320.13
2022-11-15T01:48:23.227Z,100330.13
2022-11-15T01:50:53.178Z,100322.84
2022-11-15T01:53:22.389Z,100341.53
2022-11-15T01:55:53.004Z,100347.13
2022-11-15T01:58:21.103Z,100351.50
2022-11-15T02:00:50.696Z,100350.91
2022-11-15T02:03:18.808Z,100350.91
2022-11-15T02:05:46.755Z,100346.31
2022-11-15T02:08:21.575Z,100349.00
2022-11-15T02:10:56.490Z,100346.31
2022-11-15T02:13:25.725Z,100340.91
2022-11-15T02:16:04.327Z,100330.13
2022-11-15T02:18:34.955Z,100323.06
2022-11-15T02:21:26.087Z,100318.50
2022-11-15T02:24:37.845Z,100323.06
2022-11-15T02:27:40.473Z,100339.28
2022-11-15T02:30:31.227Z,100336.56
2022-11-15T02:33:01.283Z,100334.06
2022-11-15T02:35:33.863Z,100329.50
2022-11-15T02:38:04.298Z,100333.06
2022-11-15T02:40:37.651Z,100335.75
2022-11-15T02:43:27.374Z,100325.16
2022-11-15T02:46:02.260Z,100328.69
2022-11-15T02:48:31.600Z,100331.38
2022-11-15T02:51:01.007Z,100336.78
2022-11-15T02:53:30.586Z,100324.94
2022-11-15T02:56:00.015Z,100325.97
2022-11-15T02:58:51.944Z,100324.94
2022-11-15T03:01:29.291Z,100328.69
2022-11-15T03:04:10.365Z,100336.78
2022-11-15T03:06:42.074Z,100326.22
2022-11-15T03:09:13.311Z,100333.47
2022-11-15T03:11:43.904Z,100333.47
2022-11-15T03:14:18.942Z,100339.72
2022-11-15T03:16:49.968Z,100343.44
2022-11-15T03:19:21.662Z,100336.16
2022-11-15T03:21:49.795Z,100334.31
2022-11-15T03:24:21.970Z,100333.47
2022-11-15T03:26:54.279Z,100342.63
2022-11-15T03:29:25.190Z,100335.56
2022-11-15T03:31:56.573Z,100333.47
2022-11-15T03:34:31.655Z,100333.91
2022-11-15T03:36:59.575Z,100317.69
2022-11-15T03:39:28.050Z,100318.31
2022-11-15T03:42:04.570Z,100312.28
2022-11-15T03:44:38.899Z,100311.28
2022-11-15T03:47:11.614Z,100304.19
2022-11-15T03:49:42.007Z,100313.13
2022-11-15T03:52:11.875Z,100306.91
2022-11-15T03:54:47.130Z,100309.59
2022-11-15T03:57:16.314Z,100308.56
2022-11-15T03:59:45.549Z,100300.69
2022-11-15T04:02:16.221Z,100296.09
2022-11-15T04:04:44.314Z,100304.19
2022-11-15T04:07:13.929Z,100301.50
2022-11-15T04:09:57.482Z,100300.69
2022-11-15T04:12:32.683Z,100298.78
2022-11-15T04:15:11.475Z,100291.75
2022-11-15T04:17:43.411Z,100289.88
2022-11-15T04:20:32.443Z,100290.69
2022-11-15T04:23:20.350Z,100291.75
2022-11-15T04:25:51.244Z,100286.34
2022-11-15T04:28:20.450Z,100285.31
2022-11-15T04:30:49.683Z,100269.91
2022-11-15T04:33:20.213Z,100278.25
2022-11-15T04:36:08.348Z,100271.19
2022-11-15T04:38:48.098Z,100288.22
2022-11-15T04:41:16.083Z,100281.78
2022-11-15T04:43:44.029Z,100265.59
2022-11-15T04:46:12.020Z,100262.06
2022-11-15T04:48:41.343Z,100278.25
2022-11-15T04:51:09.283Z,100274.75
2022-11-15T04:53:38.422Z,100267.47
2022-11-15T04:56:08.304Z,100256.66
2022-11-15T04:58:36.317Z,100262.25
2022-11-15T05:01:09.242Z,100261.25
2022-11-15T05:03:55.795Z,100250.44
2022-11-15T05:06:29.268Z,100244.19
2022-11-15T05:08:58.378Z,100243.38
2022-11-15T05:11:26.418Z,100237.97
2022-11-15T05:13:54.571Z,100242.53
2022-11-15T05:16:22.494Z,100240.66
2022-11-15T05:18:53.078Z,100245.25
2022-11-15T05:21:22.318Z,100247.94
2022-11-15T05:23:52.903Z,100245.25
2022-11-15T05:26:21.894Z,100249.81
2022-11-15T05:28:54.990Z,100242.53
2022-11-15T05:31:23.297Z,100237.16
2022-11-15T05:33:52.610Z,100232.81
2022-11-15T05:36:24.157Z,100236.31
2022-11-15T05:38:54.901Z,100243.59
2022-11-15T05:41:26.532Z,100240.91
2022-11-15T05:43:55.845Z,100246.31
2022-11-15T05:46:25.094Z,100232.97
2022-11-15T05:48:54.238Z,100240.91
2022-11-15T05:51:23.697Z,100238.19
2022-11-15T05:53:54.037Z,100229.25
2022-11-15T05:56:23.170Z,100229.25
2022-11-15T05:58:55.557Z,100230.09
2022-11-15T06:01:29.805Z,100231.13
2022-11-15T06:03:58.962Z,100224.06
2022-11-15T06:06:29.913Z,100216.78
2022-11-15T06:09:00.386Z,100217.63
2022-11-15T06:11:29.869Z,100222.19
2022-11-15T06:13:58.986Z,100212.22
2022-11-15T06:16:27.997Z,100220.34
2022-11-15T06:18:56.950Z,100218.44
2022-11-15T06:21:29.582Z,100231.13
2022-11-15T06:24:00.262Z,100237.34
2022-11-15T06:26:29.859Z,100238.19
2022-11-15T06:28:59.171Z,100226.56
2022-11-15T06:31:27.134Z,100229.25
2022-11-15T06:33:55.306Z,100232.81
2022-11-15T06:36:24.538Z,100227.41
2022-11-15T06:38:53.760Z,100221.16
2022-11-15T06:41:24.395Z,100219.31
2022-11-15T06:43:53.686Z,100215.75
2022-11-15T06:46:22.739Z,100223.66
2022-11-15T06:48:52.865Z,100226.34
2022-11-15T06:51:22.367Z,100222.59
2022-11-15T06:53:51.539Z,100217.19
2022-11-15T06:56:20.867Z,100197.72
2022-11-15T06:58:55.432Z,100210.16
2022-11-15T07:01:24.586Z,100222.59
2022-11-15T07:03:53.594Z,100226.34
2022-11-15T07:06:23.100Z,100233.38
2022-11-15T07:08:54.724Z,100231.75
2022-11-15T07:11:23.690Z,100226.97
2022-11-15T07:13:53.017Z,100231.53
2022-11-15T07:16:22.275Z,100224.25
2022-11-15T07:18:51.514Z,100220.50
2022-11-15T07:21:26.245Z,100218.88
2022-11-15T07:23:55.673Z,100214.50
2022-11-15T07:26:23.653Z,100217.81
2022-11-15T07:28:53.172Z,100202.66
2022-11-15T07:31:21.195Z,100202.66
2022-11-15T07:33:49.144Z,100198.91
2022-11-15T07:36:17.080Z,100193.13
2022-11-15T07:38:45.273Z,100192.91
2022-11-15T07:41:13.265Z,100184.22
2022-11-15T07:43:42.799Z,100188.56
2022-11-15T07:46:12.167Z,100189.63
2022-11-15T07:48:45.253Z,100199.34
2022-11-15T07:51:14.896Z,100197.47
2022-11-15T07:53:43.127Z,100201.00
2022-11-15T07:56:11.198Z,100214.72
2022-11-15T07:58:39.118Z,100203.69
2022-11-15T08:01:07.495Z,100202.66
2022-11-15T08:03:37.032Z,100204.53
2022-11-15T08:06:05.294Z,100197.88
2022-11-15T08:08:33.264Z,100199.69
2022-11-15T08:11:01.335Z,100193.03
2022-11-15T08:13:30.138Z,100195.50
2022-11-15T08:16:00.504Z,100196.72
2022-11-15T08:18:28.860Z,100176.34
2022-11-15T08:21:01.044Z,100186.69
2022-11-15T08:23:30.132Z,100186.25
2022-11-15T08:26:02.671Z,100184.97
2022-11-15T08:28:30.986Z,100185.19
2022-11-15T08:30:58.884Z,100193.91
2022-11-15T08:33:26.823Z,100182.28
2022-11-15T08:35:54.844Z,100188.50
2022-11-15T08:38:24.247Z,100176.88
2022-11-15T08:40:52.547Z,100164.81
2022-11-15T08:43:20.658Z,100164.56
2022-11-15T08:45:48.664Z,100167.25
2022-11-15T08:48:16.738Z,100169.97
2022-11-15T08:50:45.506Z,100161.66
2022-11-15T08:53:15.138Z,100172.47
2022-11-15T08:55:44.575Z,100168.69
2022-11-15T08:58:12.704Z,100173.06
2022-11-15T09:00:40.622Z,100175.78
2022-11-15T09:03:10.182Z,100178.22
2022-11-15T09:05:38.360Z,100174.25
2022-11-15T09:08:25.517Z,100165.72
2022-11-15T09:10:56.284Z,100174.41
2022-11-15T09:13:24.214Z,100173.59
2022-11-15T09:15:52.208Z,100174.22
2022-11-15T09:18:22.397Z,100169.41
2022-11-15T09:20:50.451Z,100170.25
2022-11-15T09:23:18.605Z,100171.50
2022-11-15T09:25:46.576Z,100166.72
2022-11-15T09:28:16.142Z,100167.53
2022-11-15T09:30:44.205Z,100166.72
2022-11-15T09:33:12.659Z,100167.75
2022-11-15T09:35:41.884Z,100156.94
2022-11-15T09:38:09.775Z,100152.34
2022-11-15T09:40:38.675Z,100154.25
2022-11-15T09:43:18.781Z,100150.72
2022-11-15T09:45:55.222Z,100143.22
2022-11-15T09:49:00.391Z,100143.44
2022-11-15T09:51:31.324Z,100141.56
2022-11-15T09:54:45.472Z,100138.84
2022-11-15T09:56:54.228Z,100145.94
2022-11-15T09:59:32.590Z,100135.72
2022-11-15T10:02:06.251Z,100135.72
2022-11-15T10:04:34.136Z,100134.06
2022-11-15T10:07:05.034Z,100134.66
2022-11-15T10:09:36.240Z,100119.50
2022-11-15T10:12:04.383Z,100114.09
2022-11-15T10:14:33.700Z,100115.97
2022-11-15T10:17:11.797Z,100112.44
2022-11-15T10:19:44.495Z,100100.81
2022-11-15T10:22:20.427Z,100106.00
2022-11-15T10:24:49.080Z,100100.59
2022-11-15T10:27:18.216Z,100100.59
2022-11-15T10:29:48.358Z,100092.72
2022-11-15T10:32:19.540Z,100079.19
2022-11-15T10:34:47.601Z,100087.50
2022-11-15T10:37:15.743Z,100073.44
2022-11-15T10:39:44.424Z,100073.44
2022-11-15T10:42:19.843Z,100072.38
2022-11-15T10:44:49.142Z,100073.44
2022-11-15T10:47:28.472Z,100064.72
2022-11-15T10:50:01.368Z,100053.31
2022-11-15T10:52:29.413Z,100059.78
2022-11-15T10:54:59.846Z,100049.41
2022-11-15T10:57:29.773Z,100053.75
2022-11-15T11:00:00.846Z,100053.97
2022-11-15T11:02:34.136Z,100044.69
2022-11-15T11:05:02.457Z,100048.81
2022-11-15T11:07:31.600Z,100048.22
2022-11-15T11:10:01.613Z,100049.28
2022-11-15T11:12:31.188Z,100043.47
2022-11-15T11:15:01.372Z,100042.88
2022-11-15T11:17:35.074Z,100038.31
2022-11-15T11:20:05.743Z,100038.53
2022-11-15T11:22:37.112Z,100032.53
2022-11-15T11:25:10.772Z,100038.97
2022-11-15T11:27:45.946Z,100033.78
2022-11-15T11:30:17.571Z,100046.25
2022-11-15T11:33:07.861Z,100028.41
2022-11-15T11:35:38.888Z,100034.25
2022-11-15T11:38:18.043Z,100036.13
2022-11-15T11:41:00.016Z,100030.13
2022-11-15T11:43:29.904Z,100028.47
2022-11-15T11:46:33.151Z,100016.84
2022-11-15T11:49:03.837Z,100013.56
2022-11-15T11:51:35.144Z,100011.88
2022-11-15T11:54:07.605Z,100012.94
2022-11-15T11:56:37.128Z,100004.03
2022-11-15T11:59:08.880Z,100013.75
2022-11-15T12:01:39.588Z,100012.94
2022-11-15T12:04:11.549Z,100008.59
2022-11-15T12:06:44.578Z,100008.00
2022-11-15T12:09:15.839Z,100002.59
2022-11-15T12:11:50.005Z,99997.19
2022-11-15T12:14:25.504Z,99997.19
2022-11-15T12:16:54.789Z,99994.50
2022-11-15T12:19:22.694Z,99993.69
2022-11-15T12:21:52.569Z,99980.41
2022-11-15T12:24:22.420Z,99987.88
2022-11-15T12:26:53.138Z,99981.47
2022-11-15T12:29:25.204Z,99978.16
2022-11-15T12:31:56.693Z,99978.97
2022-11-15T12:34:45.981Z,99995.41
2022-11-15T12:37:49.436Z,99987.53
2022-11-15T12:40:30.050Z,99986.69
2022-11-15T12:43:06.484Z,99984.22
2022-11-15T12:45:35.408Z,99986.69
2022-11-15T12:48:40.409Z,99978.81
2022-11-15T12:51:09.804Z,99976.13
2022-11-15T12:53:37.725Z,99967.19
2022-11-15T12:56:27.147Z,99958.50
2022-11-15T12:58:57.236Z,99953.91
2022-11-15T13:02:07.609Z,99963.88
2022-11-15T13:04:35.535Z,99956.00
2022-11-15T13:07:05.478Z,99954.13
2022-11-15T13:09:52.463Z,99955.19
2022-11-15T13:12:51.520Z,99967.00
2022-11-15T13:15:46.101Z,99949.78
2022-11-15T13:18:40.323Z,99953.91
2022-11-15T13:21:38.714Z,99949.13
2022-11-15T13:24:12.796Z,99939.75
2022-11-15T13:26:41.259Z,99943.88
2022-11-15T13:29:17.120Z,99937.59
2022-11-15T13:31:46.299Z,99937.50
2022-11-15T13:34:49.423Z,99923.31
2022-11-15T13:37:12.144Z,99926.16
2022-11-15T13:39:43.121Z,99915.72
2022-11-15T13:42:16.859Z,99912.56
2022-11-15T13:44:57.241Z,99911.06
2022-11-15T13:47:27.892Z,99907.91
2022-11-15T13:49:55.880Z,99904.75
2022-11-15T13:52:23.807Z,99905.34
2022-11-15T13:54:56.841Z,99899.69
2022-11-15T13:57:26.298Z,99897.38
2022-11-15T13:59:55.101Z,99897.13
2022-11-15T14:02:24.529Z,99910.41
2022-11-15T14:04:53.569Z,99902.09
2022-11-15T14:07:22.730Z,99904.56
2022-11-15T14:09:50.635Z,99904.56
2022-11-15T14:12:34.089Z,99896.22
2022-11-15T14:15:03.839Z,99903.72
2022-11-15T14:17:39.485Z,99892.69
2022-11-15T14:20:29.467Z,99895.41
2022-11-15T14:22:58.185Z,99888.81
2022-11-15T14:25:26.496Z,99899.81
2022-11-15T14:28:15.581Z,99880.91
2022-11-15T14:30:47.250Z,99888.44
2022-11-15T14:33:26.006Z,99871.84
2022-11-15T14:35:54.142Z,99877.25
2022-11-15T14:38:24.565Z,99876.44
2022-11-15T14:40:52.672Z,99872.91
2022-11-15T14:43:22.148Z,99869.75
2022-11-15T14:45:50.085Z,99866.84
2022-11-15T14:48:18.227Z,99867.41
2022-11-15T14:50:46.169Z,99874.69
2022-11-15T14:53:15.967Z,99882.81
2022-11-15T14:55:43.928Z,99877.66
2022-11-15T14:58:12.075Z,99878.69
2022-11-15T15:00:42.479Z,99875.63
2022-11-15T15:03:10.934Z,99870.69
2022-11-15T15:05:40.096Z,99864.69
2022-11-15T15:08:08.691Z,99868.88
2022-11-15T15:10:41.207Z,99872.66
2022-11-15T15:13:15.590Z,99865.00
2022-11-15T15:15:45.977Z,99863.34
2022-11-15T15:18:15.625Z,99860.06
2022-11-15T15:20:43.797Z,99855.72
2022-11-15T15:23:17.347Z,99855.13
2022-11-15T15:25:46.592Z,99856.16
2022-11-15T15:28:15.255Z,99860.97
2022-11-15T15:30:45.209Z,99861.81
2022-11-15T15:33:15.632Z,99862.03
2022-11-15T15:35:44.049Z,99859.34
2022-11-15T15:38:14.823Z,99853.13
2022-11-15T15:40:42.862Z,99847.94
2022-11-15T15:43:11.635Z,99844.41
2022-11-15T15:45:40.344Z,99847.56
2022-11-15T15:48:12.955Z,99850.28
2022-11-15T15:50:40.886Z,99843.22
2022-11-15T15:53:09.786Z,99853.19
2022-11-15T15:55:37.665Z,99857.16
2022-11-15T15:58:06.532Z,99855.75
2022-11-15T16:00:34.800Z,99854.13
2022-11-15T16:03:03.455Z,99857.88
2022-11-15T16:05:34.350Z,99860.78
2022-11-15T16:08:06.080Z,99860.78
2022-11-15T16:10:35.088Z,99858.31
2022-11-15T16:13:03.822Z,99853.97
2022-11-15T16:15:32.172Z,99846.94
2022-11-15T16:18:00.716Z,99845.28
2022-11-15T16:20:40.613Z,99840.94
2022-11-15T16:23:09.966Z,99840.13
2022-11-15T16:25:43.155Z,99838.44
2022-11-15T16:28:21.471Z,99834.94
2022-11-15T16:30:56.565Z,99839.50
2022-11-15T16:33:25.986Z,99837.03
2022-11-15T16:35:56.112Z,99826.66
2022-11-15T16:38:24.004Z,99831.03
2022-11-15T16:40:52.603Z,99828.53
2022-11-15T16:43:20.454Z,99828.75
2022-11-15T16:45:49.721Z,99828.75
2022-11-15T16:48:23.218Z,99820.91
2022-11-15T16:50:51.817Z,99828.19
2022-11-15T16:53:21.267Z,99832.75
2022-11-15T16:55:50.048Z,99837.56
2022-11-15T16:58:18.087Z,99837.56
2022-11-15T17:00:46.844Z,99832.38
2022-11-15T17:03:14.763Z,99831.56
2022-11-15T17:05:43.791Z,99829.88
2022-11-15T17:08:11.706Z,99828.03
2022-11-15T17:10:42.750Z,99834.47
2022-11-15T17:13:11.881Z,99825.56
2022-11-15T17:15:40.470Z,99828.25
2022-11-15T17:18:08.307Z,99829.06
2022-11-15T17:20:36.935Z,99829.88
2022-11-15T17:23:04.827Z,99821.59
2022-11-15T17:25:33.435Z,99813.50
2022-11-15T17:28:02.654Z,99807.28
2022-11-15T17:30:33.228Z,99802.69
2022-11-15T17:33:01.596Z,99799.78
2022-11-15T17:35:30.244Z,99800.59
2022-11-15T17:37:58.170Z,99799.53
2022-11-15T17:40:26.719Z,99805.75
2022-11-15T17:42:55.490Z,99801.19
2022-11-15T17:45:25.486Z,99802.84
2022-11-15T17:47:53.742Z,99802.84
2022-11-15T17:50:22.394Z,99799.06
2022-11-15T17:52:50.294Z,99804.47
2022-11-15T17:55:18.897Z,99795.34
2022-11-15T17:57:46.808Z,99796.97
2022-11-15T18:00:15.762Z,99802.16
2022-11-15T18:02:45.838Z,99796.97
2022-11-15T18:05:13.840Z,99799.47
2022-11-15T18:07:42.453Z,99805.66
2022-11-15T18:10:10.470Z,99796.53
2022-11-15T18:12:39.065Z,99798.41
2022-11-15T18:15:07.832Z,99789.25
2022-11-15T18:17:37.826Z,99795.50
2022-11-15T18:20:08.294Z,99787.41
2022-11-15T18:22:36.922Z,99789.88
2022-11-15T18:25:05.086Z,99792.81
2022-11-15T18:27:33.971Z,99789.03
2022-11-15T18:30:02.653Z,99780.94
2022-11-15T18:32:31.334Z,99772.84
2022-11-15T18:34:59.214Z,99775.34
2022-11-15T18:37:30.865Z,99778.84
2022-11-15T18:39:58.802Z,99774.28
2022-11-15T18:42:27.865Z,99765.34
2022-11-15T18:44:55.942Z,99769.94
2022-11-15T18:47:24.635Z,99776.97
2022-11-15T18:49:52.499Z,99775.09
2022-11-15T18:52:21.600Z,99774.88
2022-11-15T18:54:50.878Z,99763.25
2022-11-15T18:57:19.878Z,99757.00
2022-11-15T18:59:47.811Z,99759.50
2022-11-15T19:02:16.461Z,99757.84
2022-11-15T19:04:44.372Z,99764.88
2022-11-15T19:07:13.013Z,99763.00
2022-11-15T19:09:40.988Z,99750.31
2022-11-15T19:12:11.084Z,99745.78
2022-11-15T19:14:39.022Z,99744.72
2022-11-15T19:17:07.665Z,99743.66
2022-11-15T19:19:35.647Z,99739.91
2022-11-15T19:22:05.181Z,99746.13
2022-11-15T19:24:34.073Z,99739.66
2022-11-15T19:27:02.777Z,99740.50
2022-11-15T19:29:35.895Z,99732.16
2022-11-15T19:32:06.958Z,99729.47
2022-11-15T19:34:34.916Z,99734.03
2022-11-15T19:37:04.285Z,99734.84
2022-11-15T19:40:30.704Z,99735.47
2022-11-15T19:43:01.022Z,99727.38
2022-11-15T19:45:30.323Z,99728.19
2022-11-15T19:48:00.921Z,99730.88
2022-11-15T19:50:28.911Z,99719.25
2022-11-15T19:52:57.564Z,99712.78
2022-11-15T19:55:25.495Z,99712.56
2022-11-15T19:57:54.268Z,99705.28
2022-11-15T20:00:22.301Z,99703.66
2022-11-15T20:02:51.618Z,99693.44
2022-11-15T20:05:20.928Z,99696.13
2022-11-15T20:07:49.273Z,99703.41
2022-11-15T20:10:20.753Z,99702.38
2022-11-15T20:12:48.890Z,99704.81
2022-11-15T20:15:17.687Z,99694.84
2022-11-15T20:17:45.569Z,99691.09
2022-11-15T20:20:15.871Z,99689.00
2022-11-15T20:22:43.801Z,99682.75
2022-11-15T20:25:12.596Z,99682.53
2022-11-15T20:27:40.485Z,99681.72
2022-11-15T20:30:11.171Z,99673.84
2022-11-15T20:32:40.992Z,99670.91
2022-11-15T20:35:10.995Z,99675.25
2022-11-15T20:37:40.383Z,99667.41
2022-11-15T20:40:43.007Z,99664.44
2022-11-15T20:43:11.818Z,99667.63
2022-11-15T20:45:40.573Z,99670.91
2022-11-15T20:48:08.451Z,99666.31
2022-11-15T20:50:44.089Z,99665.50
2022-11-15T20:53:14.697Z,99673.63
2022-11-15T20:55:44.947Z,99679.84
2022-11-15T20:58:12.893Z,99671.94
2022-11-15T21:00:42.812Z,99669.25
2022-11-15T21:03:12.436Z,99665.75
2022-11-15T21:05:41.954Z,99670.31
2022-11-15T21:08:10.242Z,99672.81
2022-11-15T21:10:59.333Z,99654.13
2022-11-15T21:13:27.344Z,99648.94
2022-11-15T21:15:58.074Z,99650.81
2022-11-15T21:18:26.094Z,99657.28
2022-11-15T21:20:55.048Z,99662.09
2022-11-15T21:23:23.030Z,99651.50
2022-11-15T21:25:53.372Z,99648.00
2022-11-15T21:28:21.286Z,99657.16
2022-11-15T21:30:57.529Z,99650.69
2022-11-15T21:33:27.417Z,99647.19
2022-11-15T21:35:56.396Z,99646.97
2022-11-15T21:38:24.658Z,99649.66
2022-11-15T21:40:54.833Z,99648.00
2022-11-15T21:43:22.739Z,99644.25
2022-11-15T21:45:57.597Z,99645.09
2022-11-15T21:48:25.536Z,99639.91
2022-11-15T21:50:59.895Z,99641.56
2022-11-15T21:53:28.400Z,99641.78
2022-11-15T21:55:58.768Z,99635.56
2022-11-15T21:58:26.782Z,99639.09
2022-11-15T22:01:13.150Z,99635.31
2022-11-15T22:03:50.792Z,99625.59
2022-11-15T22:06:21.113Z,99613.97
2022-11-15T22:08:49.102Z,99619.38
2022-11-15T22:11:19.142Z,99623.97
2022-11-15T22:13:47.155Z,99615.59
2022-11-15T22:16:16.028Z,99615.59
2022-11-15T22:18:44.297Z,99619.38
2022-11-15T22:21:16.042Z,99613.97
2022-11-15T22:23:44.330Z,99613.16
2022-11-15T22:26:15.855Z,99598.59
2022-11-15T22:28:46.809Z,99613.16
2022-11-15T22:31:18.050Z,99603.16
2022-11-15T22:33:46.107Z,99611.28
2022-11-15T22:36:15.085Z,99603.16
2022-11-15T22:38:43.114Z,99601.50
2022-11-15T22:41:12.036Z,99594.00
2022-11-15T22:43:40.134Z,99590.72
2022-11-15T22:46:10.903Z,99587.78
2022-11-15T22:48:39.484Z,99578.88
2022-11-15T22:51:08.583Z,99580.75
2022-11-15T22:53:36.633Z,99579.09
2022-11-15T22:56:06.238Z,99572.88
2022-11-15T22:58:34.753Z,99571.25
2022-11-15T23:01:05.073Z,99575.00
2022-11-15T23:03:34.818Z,99575.59
2022-11-15T23:06:04.611Z,99571.72
2022-11-15T23:08:33.173Z,99560.56
2022-11-15T23:11:20.241Z,99551.06
2022-11-15T23:13:48.273Z,99545.06
2022-11-15T23:16:26.196Z,99546.13
2022-11-15T23:18:57.050Z,99539.91
2022-11-15T23:21:44.813Z,99537.44
2022-11-15T23:24:13.469Z,99534.72
2022-11-15T23:26:41.721Z,99535.78
2022-11-15T23:29:10.639Z,99523.09
2022-11-15T23:32:01.471Z,99523.34
2022-11-15T23:34:32.219Z,99524.97
2022-11-15T23:37:00.693Z,99515.25
2022-11-15T23:39:28.710Z,99514.66
2022-11-15T23:41:56.755Z,99504.69
2022-11-15T23:44:24.888Z,99505.97
2022-11-15T23:46:52.939Z,99499.75
2022-11-15T23:49:21.023Z,99503.28
2022-11-15T23:51:50.469Z,99496.25
2022-11-15T23:54:18.495Z,99493.53
2022-11-15T23:56:46.528Z,99484.84
2022-11-15T23:59:14.543Z,99484.84
